IKILE LZIB-LOAG
Flight info
| Callsign | IKILE |
|---|---|
| Flight time | 1h 2m |
| Altitude | 10000 |
| Route | TOVKA DCT STO/A025N0120 VFR AUTOBAHNBRUCKE |
| Aircraft | P28R/L-SBDFGRY/EU2 |
Departure
| Time | 2026-05-04 19:09 |
|---|---|
| Airport | M. R. Štefánik Airport (LZIB) |
Arrival
| Time | 2026-05-04 20:11 |
|---|---|
| Airport | Krems/Langenlois Airfield (LOAG) |
| Time | Latitude | Longitude | Altitude | Speed | Heading |
|---|---|---|---|---|---|
| 2026-05-04 18:37 | 48.16640 | 17.19583 | 437 ft | 0 kts | 359° |
| 2026-05-04 19:00 | 48.16663 | 17.19591 | 437 ft | 5 kts | 50° |
| 2026-05-04 19:00 | 48.16669 | 17.19627 | 437 ft | 2 kts | 86° |
| 2026-05-04 19:01 | 48.16670 | 17.19651 | 437 ft | 3 kts | 86° |
| 2026-05-04 19:01 | 48.16671 | 17.19708 | 437 ft | 7 kts | 89° |
| 2026-05-04 19:01 | 48.16671 | 17.19798 | 437 ft | 9 kts | 90° |
| 2026-05-04 19:01 | 48.16671 | 17.19910 | 436 ft | 11 kts | 89° |
| 2026-05-04 19:02 | 48.16672 | 17.20042 | 436 ft | 13 kts | 89° |
| 2026-05-04 19:02 | 48.16675 | 17.20192 | 436 ft | 15 kts | 89° |
| 2026-05-04 19:02 | 48.16690 | 17.20345 | 435 ft | 15 kts | 47° |
| 2026-05-04 19:02 | 48.16771 | 17.20462 | 435 ft | 16 kts | 43° |
| 2026-05-04 19:03 | 48.16856 | 17.20592 | 434 ft | 17 kts | 46° |
| 2026-05-04 19:03 | 48.16941 | 17.20726 | 434 ft | 17 kts | 44° |
| 2026-05-04 19:03 | 48.17016 | 17.20840 | 434 ft | 8 kts | 46° |
| 2026-05-04 19:03 | 48.17047 | 17.20890 | 434 ft | 5 kts | 46° |
| 2026-05-04 19:04 | 48.17054 | 17.20902 | 434 ft | 0 kts | 46° |
| 2026-05-04 19:04 | 48.17063 | 17.20915 | 434 ft | 2 kts | 45° |
| 2026-05-04 19:04 | 48.17069 | 17.20924 | 434 ft | 1 kts | 45° |
| 2026-05-04 19:04 | 48.17088 | 17.20953 | 433 ft | 7 kts | 46° |
| 2026-05-04 19:05 | 48.17126 | 17.21012 | 433 ft | 4 kts | 46° |
| 2026-05-04 19:05 | 48.17150 | 17.21054 | 433 ft | 3 kts | 89° |
| 2026-05-04 19:05 | 48.17146 | 17.21063 | 433 ft | 0 kts | 131° |
| 2026-05-04 19:07 | 48.17087 | 17.21153 | 433 ft | 40 kts | 132° |
| 2026-05-04 19:08 | 48.16780 | 17.21631 | 441 ft | 79 kts | 129° |
| 2026-05-04 19:08 | 48.16420 | 17.22196 | 634 ft | 75 kts | 133° |
| 2026-05-04 19:08 | 48.16052 | 17.22770 | 862 ft | 75 kts | 134° |
| 2026-05-04 19:08 | 48.15717 | 17.23373 | 994 ft | 80 kts | 133° |
| 2026-05-04 19:09 | 48.15380 | 17.24003 | 1144 ft | 77 kts | 134° |
| 2026-05-04 19:09 | 48.15039 | 17.24638 | 1353 ft | 80 kts | 135° |
| 2026-05-04 19:09 | 48.14701 | 17.25277 | 1631 ft | 76 kts | 136° |
| 2026-05-04 19:09 | 48.14397 | 17.25878 | 1912 ft | 69 kts | 138° |
| 2026-05-04 19:10 | 48.14096 | 17.26495 | 2100 ft | 75 kts | 137° |
| 2026-05-04 19:10 | 48.13790 | 17.27143 | 2327 ft | 76 kts | 135° |
| 2026-05-04 19:10 | 48.13409 | 17.27535 | 2539 ft | 69 kts | 168° |
| 2026-05-04 19:10 | 48.12951 | 17.27491 | 2772 ft | 67 kts | 191° |
| 2026-05-04 19:11 | 48.12535 | 17.27146 | 2970 ft | 72 kts | 210° |
| 2026-05-04 19:11 | 48.12226 | 17.26553 | 3048 ft | 73 kts | 225° |
| 2026-05-04 19:11 | 48.11995 | 17.25907 | 3212 ft | 66 kts | 223° |
| 2026-05-04 19:11 | 48.11784 | 17.25281 | 3349 ft | 71 kts | 229° |
| 2026-05-04 19:12 | 48.11572 | 17.24608 | 3494 ft | 72 kts | 225° |
| 2026-05-04 19:12 | 48.11059 | 17.23299 | 3804 ft | 73 kts | 220° |
| 2026-05-04 19:12 | 48.10768 | 17.22637 | 3914 ft | 80 kts | 227° |
| 2026-05-04 19:13 | 48.10725 | 17.21730 | 4051 ft | 99 kts | 274° |
| 2026-05-04 19:13 | 48.11148 | 17.20853 | 4213 ft | 106 kts | 298° |
| 2026-05-04 19:13 | 48.11548 | 17.19974 | 4344 ft | 105 kts | 292° |
| 2026-05-04 19:13 | 48.12021 | 17.19115 | 4496 ft | 106 kts | 296° |
| 2026-05-04 19:14 | 48.12491 | 17.18271 | 4645 ft | 106 kts | 297° |
| 2026-05-04 19:14 | 48.12964 | 17.17433 | 4787 ft | 106 kts | 297° |
| 2026-05-04 19:14 | 48.13443 | 17.16584 | 4932 ft | 106 kts | 298° |
| 2026-05-04 19:14 | 48.13914 | 17.15754 | 5074 ft | 105 kts | 297° |
| 2026-05-04 19:15 | 48.14390 | 17.14918 | 5211 ft | 105 kts | 297° |
| 2026-05-04 19:15 | 48.14862 | 17.14082 | 5366 ft | 105 kts | 297° |
| 2026-05-04 19:15 | 48.15340 | 17.13245 | 5536 ft | 105 kts | 298° |
| 2026-05-04 19:15 | 48.15805 | 17.12424 | 5704 ft | 104 kts | 298° |
| 2026-05-04 19:16 | 48.16279 | 17.11589 | 5863 ft | 105 kts | 298° |
| 2026-05-04 19:16 | 48.16746 | 17.10764 | 6020 ft | 105 kts | 298° |
| 2026-05-04 19:16 | 48.17217 | 17.09934 | 6182 ft | 104 kts | 299° |
| 2026-05-04 19:16 | 48.17687 | 17.09104 | 6336 ft | 104 kts | 298° |
| 2026-05-04 19:17 | 48.18154 | 17.08280 | 6485 ft | 105 kts | 300° |
| 2026-05-04 19:17 | 48.18631 | 17.07444 | 6641 ft | 104 kts | 299° |
| 2026-05-04 19:17 | 48.19072 | 17.06603 | 6789 ft | 101 kts | 286° |
| 2026-05-04 19:17 | 48.19326 | 17.05641 | 6938 ft | 100 kts | 281° |
| 2026-05-04 19:18 | 48.19567 | 17.04668 | 7084 ft | 100 kts | 279° |
| 2026-05-04 19:18 | 48.19797 | 17.03688 | 7225 ft | 100 kts | 278° |
| 2026-05-04 19:18 | 48.20027 | 17.02670 | 7316 ft | 105 kts | 278° |
| 2026-05-04 19:18 | 48.20260 | 17.01642 | 7429 ft | 105 kts | 278° |
| 2026-05-04 19:19 | 48.20497 | 17.00576 | 7525 ft | 108 kts | 278° |
| 2026-05-04 19:19 | 48.20734 | 16.99515 | 7654 ft | 107 kts | 278° |
| 2026-05-04 19:19 | 48.20964 | 16.98474 | 7773 ft | 106 kts | 278° |
| 2026-05-04 19:19 | 48.21198 | 16.97413 | 7879 ft | 107 kts | 278° |
| 2026-05-04 19:20 | 48.21431 | 16.96350 | 7982 ft | 108 kts | 278° |
| 2026-05-04 19:20 | 48.21673 | 16.95236 | 8008 ft | 116 kts | 278° |
| 2026-05-04 19:20 | 48.21932 | 16.94056 | 8009 ft | 123 kts | 279° |
| 2026-05-04 19:20 | 48.22204 | 16.92816 | 8004 ft | 127 kts | 279° |
| 2026-05-04 19:21 | 48.22488 | 16.91530 | 7999 ft | 130 kts | 280° |
| 2026-05-04 19:21 | 48.22772 | 16.90247 | 7997 ft | 131 kts | 281° |
| 2026-05-04 19:21 | 48.23057 | 16.88949 | 7996 ft | 132 kts | 280° |
| 2026-05-04 19:21 | 48.23345 | 16.87631 | 7996 ft | 133 kts | 281° |
| 2026-05-04 19:22 | 48.23634 | 16.86305 | 7990 ft | 133 kts | 281° |
| 2026-05-04 19:22 | 48.23922 | 16.84994 | 7995 ft | 133 kts | 281° |
| 2026-05-04 19:22 | 48.24209 | 16.83680 | 7993 ft | 133 kts | 281° |
| 2026-05-04 19:22 | 48.24495 | 16.82363 | 7993 ft | 133 kts | 281° |
| 2026-05-04 19:23 | 48.24784 | 16.81045 | 8003 ft | 133 kts | 281° |
| 2026-05-04 19:23 | 48.25075 | 16.79706 | 7997 ft | 135 kts | 281° |
| 2026-05-04 19:23 | 48.25364 | 16.78377 | 7990 ft | 136 kts | 281° |
| 2026-05-04 19:23 | 48.25657 | 16.77032 | 7997 ft | 136 kts | 281° |
| 2026-05-04 19:24 | 48.25951 | 16.75682 | 7992 ft | 137 kts | 281° |
| 2026-05-04 19:24 | 48.26248 | 16.74309 | 7991 ft | 137 kts | 281° |
| 2026-05-04 19:24 | 48.26542 | 16.72960 | 8006 ft | 137 kts | 281° |
| 2026-05-04 19:24 | 48.26838 | 16.71600 | 8000 ft | 138 kts | 281° |
| 2026-05-04 19:25 | 48.27133 | 16.70230 | 7997 ft | 137 kts | 281° |
| 2026-05-04 19:25 | 48.27428 | 16.68878 | 7995 ft | 136 kts | 281° |
| 2026-05-04 19:25 | 48.27719 | 16.67536 | 7995 ft | 135 kts | 281° |
| 2026-05-04 19:25 | 48.28008 | 16.66193 | 7995 ft | 135 kts | 281° |
| 2026-05-04 19:26 | 48.28299 | 16.64853 | 7999 ft | 135 kts | 281° |
| 2026-05-04 19:26 | 48.28586 | 16.63517 | 7994 ft | 135 kts | 281° |
| 2026-05-04 19:26 | 48.28878 | 16.62171 | 7985 ft | 134 kts | 281° |
| 2026-05-04 19:26 | 48.29165 | 16.60837 | 7984 ft | 133 kts | 281° |
| 2026-05-04 19:27 | 48.29450 | 16.59519 | 7992 ft | 133 kts | 281° |
| 2026-05-04 19:27 | 48.29733 | 16.58210 | 7994 ft | 133 kts | 281° |
| 2026-05-04 19:27 | 48.30020 | 16.56872 | 7999 ft | 134 kts | 281° |
| 2026-05-04 19:27 | 48.30307 | 16.55545 | 8003 ft | 134 kts | 281° |
| 2026-05-04 19:28 | 48.30593 | 16.54205 | 7998 ft | 135 kts | 281° |
| 2026-05-04 19:28 | 48.30884 | 16.52858 | 7988 ft | 136 kts | 281° |
| 2026-05-04 19:28 | 48.31170 | 16.51522 | 7991 ft | 136 kts | 281° |
| 2026-05-04 19:28 | 48.31462 | 16.50163 | 7995 ft | 136 kts | 281° |
| 2026-05-04 19:29 | 48.31750 | 16.48810 | 7987 ft | 137 kts | 282° |
| 2026-05-04 19:29 | 48.32044 | 16.47449 | 7990 ft | 137 kts | 281° |
| 2026-05-04 19:29 | 48.32334 | 16.46092 | 7985 ft | 137 kts | 282° |
| 2026-05-04 19:29 | 48.32627 | 16.44726 | 7990 ft | 137 kts | 281° |
| 2026-05-04 19:30 | 48.32914 | 16.43381 | 7990 ft | 137 kts | 281° |
| 2026-05-04 19:30 | 48.33207 | 16.42017 | 7991 ft | 137 kts | 282° |
| 2026-05-04 19:30 | 48.33496 | 16.40657 | 7989 ft | 137 kts | 282° |
| 2026-05-04 19:30 | 48.33791 | 16.39280 | 7997 ft | 137 kts | 282° |
| 2026-05-04 19:31 | 48.34072 | 16.37929 | 7989 ft | 138 kts | 280° |
| 2026-05-04 19:31 | 48.34321 | 16.36541 | 7946 ft | 136 kts | 280° |
| 2026-05-04 19:31 | 48.34594 | 16.35163 | 7786 ft | 139 kts | 281° |
| 2026-05-04 19:31 | 48.34884 | 16.33778 | 7655 ft | 140 kts | 281° |
| 2026-05-04 19:32 | 48.35193 | 16.32445 | 7534 ft | 141 kts | 284° |
| 2026-05-04 19:32 | 48.35549 | 16.31072 | 7421 ft | 140 kts | 285° |
| 2026-05-04 19:32 | 48.35926 | 16.29711 | 7310 ft | 140 kts | 287° |
| 2026-05-04 19:32 | 48.36338 | 16.28378 | 7162 ft | 142 kts | 287° |
| 2026-05-04 19:33 | 48.36665 | 16.26985 | 7035 ft | 141 kts | 279° |
| 2026-05-04 19:33 | 48.36888 | 16.25559 | 6942 ft | 138 kts | 275° |
| 2026-05-04 19:33 | 48.37116 | 16.24169 | 6853 ft | 138 kts | 280° |
| 2026-05-04 19:33 | 48.37403 | 16.22765 | 6742 ft | 142 kts | 279° |
| 2026-05-04 19:34 | 48.37673 | 16.21304 | 6610 ft | 148 kts | 278° |
| 2026-05-04 19:34 | 48.37936 | 16.19795 | 6489 ft | 152 kts | 278° |
| 2026-05-04 19:34 | 48.38229 | 16.18243 | 6332 ft | 155 kts | 280° |
| 2026-05-04 19:34 | 48.38543 | 16.16696 | 6217 ft | 155 kts | 279° |
| 2026-05-04 19:35 | 48.38848 | 16.15116 | 6034 ft | 159 kts | 281° |
| 2026-05-04 19:35 | 48.39176 | 16.13538 | 5908 ft | 158 kts | 281° |
| 2026-05-04 19:35 | 48.39484 | 16.11973 | 5811 ft | 155 kts | 278° |
| 2026-05-04 19:35 | 48.39768 | 16.10393 | 5657 ft | 157 kts | 278° |
| 2026-05-04 19:36 | 48.40037 | 16.08795 | 5518 ft | 157 kts | 276° |
| 2026-05-04 19:36 | 48.40286 | 16.07222 | 5438 ft | 155 kts | 282° |
| 2026-05-04 19:36 | 48.40698 | 16.05659 | 5158 ft | 166 kts | 286° |
| 2026-05-04 19:36 | 48.41115 | 16.04040 | 4923 ft | 166 kts | 285° |
| 2026-05-04 19:37 | 48.41519 | 16.02352 | 4475 ft | 173 kts | 280° |
| 2026-05-04 19:37 | 48.41627 | 16.00689 | 4331 ft | 156 kts | 266° |
| 2026-05-04 19:37 | 48.41678 | 15.99058 | 4079 ft | 154 kts | 267° |
| 2026-05-04 19:37 | 48.41733 | 15.97476 | 3917 ft | 149 kts | 266° |
| 2026-05-04 19:38 | 48.41761 | 15.95931 | 3717 ft | 149 kts | 265° |
| 2026-05-04 19:38 | 48.41782 | 15.94369 | 3445 ft | 152 kts | 262° |
| 2026-05-04 19:38 | 48.41761 | 15.92771 | 3264 ft | 149 kts | 264° |
| 2026-05-04 19:38 | 48.41715 | 15.91236 | 3035 ft | 150 kts | 257° |
| 2026-05-04 19:39 | 48.41577 | 15.89667 | 2813 ft | 150 kts | 257° |
| 2026-05-04 19:39 | 48.41459 | 15.88129 | 2657 ft | 147 kts | 259° |
| 2026-05-04 19:39 | 48.41358 | 15.86683 | 2831 ft | 133 kts | 257° |
| 2026-05-04 19:39 | 48.41256 | 15.85300 | 2873 ft | 132 kts | 257° |
| 2026-05-04 19:40 | 48.41172 | 15.83936 | 2938 ft | 130 kts | 257° |
| 2026-05-04 19:40 | 48.41052 | 15.82597 | 2961 ft | 130 kts | 255° |
| 2026-05-04 19:40 | 48.40904 | 15.81263 | 2996 ft | 129 kts | 251° |
| 2026-05-04 19:40 | 48.40691 | 15.79969 | 3040 ft | 127 kts | 248° |
| 2026-05-04 19:41 | 48.40557 | 15.78644 | 3050 ft | 132 kts | 263° |
| 2026-05-04 19:41 | 48.40492 | 15.77263 | 3037 ft | 133 kts | 253° |
| 2026-05-04 19:41 | 48.40334 | 15.75890 | 3090 ft | 130 kts | 252° |
| 2026-05-04 19:41 | 48.40149 | 15.74565 | 3113 ft | 130 kts | 250° |
| 2026-05-04 19:42 | 48.39921 | 15.73261 | 3101 ft | 131 kts | 246° |
| 2026-05-04 19:42 | 48.39609 | 15.71983 | 3132 ft | 127 kts | 237° |
| 2026-05-04 19:42 | 48.39156 | 15.70849 | 3157 ft | 124 kts | 227° |
| 2026-05-04 19:42 | 48.38600 | 15.69880 | 3184 ft | 122 kts | 224° |
| 2026-05-04 19:43 | 48.38149 | 15.68770 | 3176 ft | 128 kts | 237° |
| 2026-05-04 19:43 | 48.37847 | 15.67539 | 3085 ft | 125 kts | 248° |
| 2026-05-04 19:43 | 48.37648 | 15.66250 | 2827 ft | 127 kts | 254° |
| 2026-05-04 19:43 | 48.37530 | 15.64913 | 2543 ft | 131 kts | 263° |
| 2026-05-04 19:44 | 48.37494 | 15.63582 | 2359 ft | 127 kts | 264° |
| 2026-05-04 19:44 | 48.37269 | 15.62337 | 2148 ft | 124 kts | 232° |
| 2026-05-04 19:44 | 48.36832 | 15.61163 | 1879 ft | 129 kts | 250° |
| 2026-05-04 19:44 | 48.36792 | 15.60563 | 1803 ft | 128 kts | 275° |
| 2026-05-04 19:45 | 48.36825 | 15.60271 | 1818 ft | 124 kts | 281° |
| 2026-05-04 19:45 | 48.37216 | 15.59380 | 2167 ft | 108 kts | 352° |
| 2026-05-04 19:45 | 48.37718 | 15.60118 | 2117 ft | 113 kts | 92° |
| 2026-05-04 19:45 | 48.37409 | 15.61088 | 2193 ft | 106 kts | 154° |
| 2026-05-04 19:46 | 48.36660 | 15.60782 | 2131 ft | 109 kts | 178° |
| 2026-05-04 19:46 | 48.36352 | 15.61607 | 2133 ft | 113 kts | 73° |
| 2026-05-04 19:46 | 48.37044 | 15.62193 | 2140 ft | 130 kts | 3° |
| 2026-05-04 19:46 | 48.37926 | 15.61865 | 2026 ft | 137 kts | 334° |
| 2026-05-04 19:47 | 48.38661 | 15.60940 | 2017 ft | 133 kts | 310° |
| 2026-05-04 19:47 | 48.39113 | 15.59723 | 1965 ft | 134 kts | 290° |
| 2026-05-04 19:47 | 48.39288 | 15.58354 | 1899 ft | 135 kts | 268° |
| 2026-05-04 19:47 | 48.39161 | 15.57000 | 1983 ft | 123 kts | 259° |
| 2026-05-04 19:48 | 48.39049 | 15.55706 | 1935 ft | 129 kts | 257° |
| 2026-05-04 19:48 | 48.38785 | 15.54419 | 1925 ft | 127 kts | 250° |
| 2026-05-04 19:48 | 48.38723 | 15.53111 | 1860 ft | 129 kts | 273° |
| 2026-05-04 19:48 | 48.39014 | 15.51808 | 1273 ft | 130 kts | 318° |
| 2026-05-04 19:49 | 48.39735 | 15.51334 | 1177 ft | 115 kts | 347° |
| 2026-05-04 19:49 | 48.40459 | 15.50764 | 1251 ft | 122 kts | 318° |
| 2026-05-04 19:49 | 48.40773 | 15.49576 | 1168 ft | 132 kts | 254° |
| 2026-05-04 19:49 | 48.40302 | 15.48490 | 1304 ft | 119 kts | 230° |
| 2026-05-04 19:50 | 48.39720 | 15.47589 | 1315 ft | 121 kts | 219° |
| 2026-05-04 19:50 | 48.39029 | 15.46822 | 1297 ft | 124 kts | 207° |
| 2026-05-04 19:50 | 48.38325 | 15.46047 | 1339 ft | 130 kts | 221° |
| 2026-05-04 19:50 | 48.37609 | 15.45104 | 1259 ft | 144 kts | 217° |
| 2026-05-04 19:51 | 48.36855 | 15.44063 | 1174 ft | 150 kts | 240° |
| 2026-05-04 19:51 | 48.36572 | 15.42612 | 1234 ft | 144 kts | 238° |
| 2026-05-04 19:51 | 48.35842 | 15.41631 | 1373 ft | 134 kts | 216° |
| 2026-05-04 19:51 | 48.35089 | 15.40850 | 1423 ft | 138 kts | 204° |
| 2026-05-04 19:52 | 48.34172 | 15.40655 | 1543 ft | 130 kts | 168° |
| 2026-05-04 19:52 | 48.33286 | 15.40907 | 1540 ft | 136 kts | 171° |
| 2026-05-04 19:52 | 48.32401 | 15.41183 | 1721 ft | 124 kts | 158° |
| 2026-05-04 19:52 | 48.31704 | 15.41844 | 1864 ft | 112 kts | 130° |
| 2026-05-04 19:53 | 48.31214 | 15.42328 | 2025 ft | 118 kts | 209° |
| 2026-05-04 19:53 | 48.31163 | 15.41291 | 2176 ft | 120 kts | 338° |
| 2026-05-04 19:53 | 48.31474 | 15.41994 | 2149 ft | 116 kts | 117° |
| 2026-05-04 19:53 | 48.31427 | 15.43008 | 2160 ft | 129 kts | 21° |
| 2026-05-04 19:54 | 48.31815 | 15.42179 | 2349 ft | 116 kts | 237° |
| 2026-05-04 19:54 | 48.31114 | 15.41518 | 2206 ft | 130 kts | 194° |
| 2026-05-04 19:54 | 48.30713 | 15.41332 | 2173 ft | 134 kts | 193° |
| 2026-05-04 19:54 | 48.30242 | 15.41137 | 2073 ft | 142 kts | 192° |
| 2026-05-04 19:55 | 48.29302 | 15.40826 | 2213 ft | 127 kts | 188° |
| 2026-05-04 19:55 | 48.28490 | 15.40194 | 2079 ft | 142 kts | 219° |
| 2026-05-04 19:55 | 48.27803 | 15.39173 | 2050 ft | 133 kts | 222° |
| 2026-05-04 19:55 | 48.27130 | 15.38225 | 1943 ft | 134 kts | 220° |
| 2026-05-04 19:56 | 48.26458 | 15.37237 | 1838 ft | 135 kts | 225° |
| 2026-05-04 19:56 | 48.25844 | 15.36169 | 1785 ft | 133 kts | 229° |
| 2026-05-04 19:56 | 48.25344 | 15.35009 | 1707 ft | 134 kts | 237° |
| 2026-05-04 19:56 | 48.24812 | 15.33855 | 1650 ft | 133 kts | 228° |
| 2026-05-04 19:57 | 48.24114 | 15.32942 | 1564 ft | 134 kts | 214° |
| 2026-05-04 19:57 | 48.23406 | 15.32208 | 1465 ft | 135 kts | 200° |
| 2026-05-04 19:57 | 48.22583 | 15.32440 | 1481 ft | 123 kts | 135° |
| 2026-05-04 19:57 | 48.22473 | 15.33636 | 1421 ft | 122 kts | 58° |
| 2026-05-04 19:58 | 48.23201 | 15.33726 | 1537 ft | 124 kts | 318° |
| 2026-05-04 19:58 | 48.23299 | 15.32537 | 1563 ft | 126 kts | 227° |
| 2026-05-04 19:58 | 48.22600 | 15.32375 | 1658 ft | 116 kts | 146° |
| 2026-05-04 19:58 | 48.22315 | 15.33418 | 1703 ft | 117 kts | 78° |
| 2026-05-04 19:59 | 48.22750 | 15.34447 | 1801 ft | 123 kts | 47° |
| 2026-05-04 19:59 | 48.23369 | 15.35306 | 2009 ft | 117 kts | 37° |
| 2026-05-04 19:59 | 48.24089 | 15.35855 | 2150 ft | 120 kts | 26° |
| 2026-05-04 19:59 | 48.24858 | 15.36400 | 2237 ft | 124 kts | 25° |
| 2026-05-04 20:00 | 48.25695 | 15.36744 | 2338 ft | 128 kts | 5° |
| 2026-05-04 20:00 | 48.26582 | 15.36792 | 2469 ft | 126 kts | 17° |
| 2026-05-04 20:00 | 48.27341 | 15.37347 | 2704 ft | 118 kts | 33° |
| 2026-05-04 20:00 | 48.28058 | 15.37963 | 2942 ft | 115 kts | 32° |
| 2026-05-04 20:01 | 48.28765 | 15.38625 | 2972 ft | 125 kts | 45° |
| 2026-05-04 20:01 | 48.29290 | 15.39686 | 2997 ft | 130 kts | 57° |
| 2026-05-04 20:01 | 48.29801 | 15.40740 | 3267 ft | 114 kts | 60° |
| 2026-05-04 20:01 | 48.30219 | 15.41632 | 3566 ft | 102 kts | 61° |
| 2026-05-04 20:02 | 48.30617 | 15.42510 | 3790 ft | 100 kts | 61° |
| 2026-05-04 20:02 | 48.31009 | 15.43378 | 3978 ft | 104 kts | 60° |
| 2026-05-04 20:02 | 48.31450 | 15.44365 | 4011 ft | 120 kts | 60° |
| 2026-05-04 20:02 | 48.31936 | 15.45451 | 4007 ft | 131 kts | 60° |
| 2026-05-04 20:03 | 48.32455 | 15.46604 | 3999 ft | 133 kts | 60° |
| 2026-05-04 20:03 | 48.32968 | 15.47739 | 3994 ft | 130 kts | 59° |
| 2026-05-04 20:03 | 48.33476 | 15.48862 | 4001 ft | 128 kts | 60° |
| 2026-05-04 20:03 | 48.33970 | 15.49957 | 4004 ft | 127 kts | 60° |
| 2026-05-04 20:04 | 48.34467 | 15.51067 | 3931 ft | 132 kts | 60° |
| 2026-05-04 20:04 | 48.34987 | 15.52233 | 3813 ft | 137 kts | 60° |
| 2026-05-04 20:04 | 48.35528 | 15.53437 | 3680 ft | 140 kts | 60° |
| 2026-05-04 20:04 | 48.36080 | 15.54647 | 3540 ft | 142 kts | 59° |
| 2026-05-04 20:05 | 48.36651 | 15.55836 | 3429 ft | 139 kts | 59° |
| 2026-05-04 20:05 | 48.37196 | 15.57056 | 3303 ft | 138 kts | 63° |
| 2026-05-04 20:05 | 48.37685 | 15.58283 | 3180 ft | 137 kts | 64° |
| 2026-05-04 20:05 | 48.38238 | 15.59477 | 3023 ft | 141 kts | 52° |
| 2026-05-04 20:06 | 48.38850 | 15.60527 | 3058 ft | 130 kts | 52° |
| 2026-05-04 20:06 | 48.39482 | 15.61509 | 2972 ft | 133 kts | 46° |
| 2026-05-04 20:06 | 48.40271 | 15.62242 | 2963 ft | 134 kts | 24° |
| 2026-05-04 20:06 | 48.41145 | 15.62617 | 3013 ft | 128 kts | 13° |
| 2026-05-04 20:07 | 48.42021 | 15.62871 | 3015 ft | 127 kts | 13° |
| 2026-05-04 20:07 | 48.42905 | 15.63111 | 2955 ft | 132 kts | 13° |
| 2026-05-04 20:07 | 48.43794 | 15.63340 | 3004 ft | 126 kts | 12° |
| 2026-05-04 20:07 | 48.44653 | 15.63571 | 2878 ft | 119 kts | 16° |
| 2026-05-04 20:08 | 48.45427 | 15.63821 | 2661 ft | 109 kts | 17° |
| 2026-05-04 20:08 | 48.46174 | 15.63825 | 2432 ft | 113 kts | 345° |
| 2026-05-04 20:08 | 48.46815 | 15.63202 | 2237 ft | 105 kts | 314° |
| 2026-05-04 20:08 | 48.47249 | 15.62442 | 2089 ft | 94 kts | 307° |
| 2026-05-04 20:09 | 48.47412 | 15.61537 | 1964 ft | 87 kts | 252° |
| 2026-05-04 20:09 | 48.47016 | 15.60991 | 1911 ft | 77 kts | 194° |
| 2026-05-04 20:09 | 48.46504 | 15.60747 | 1850 ft | 79 kts | 186° |
| 2026-05-04 20:09 | 48.45932 | 15.60546 | 1813 ft | 86 kts | 184° |
| 2026-05-04 20:10 | 48.45380 | 15.60733 | 1683 ft | 82 kts | 139° |
| 2026-05-04 20:10 | 48.45055 | 15.61384 | 1422 ft | 74 kts | 108° |
| 2026-05-04 20:10 | 48.44904 | 15.62126 | 1244 ft | 72 kts | 102° |
| 2026-05-04 20:10 | 48.44760 | 15.62824 | 1101 ft | 69 kts | 103° |
| 2026-05-04 20:11 | 48.44631 | 15.63418 | 1047 ft | 34 kts | 105° |
| 2026-05-04 20:11 | 48.44615 | 15.63481 | 1046 ft | 5 kts | 156° |
| 2026-05-04 20:11 | 48.44591 | 15.63434 | 1047 ft | 3 kts | 245° |
| 2026-05-04 20:11 | 48.44584 | 15.63411 | 1047 ft | 3 kts | 245° |
| 2026-05-04 20:12 | 48.44588 | 15.63346 | 1048 ft | 9 kts | 288° |
| 2026-05-04 20:12 | 48.44590 | 15.63237 | 1053 ft | 8 kts | 248° |
| 2026-05-04 20:12 | 48.44590 | 15.63188 | 1056 ft | 3 kts | 282° |
| 2026-05-04 20:12 | 48.44591 | 15.63175 | 1056 ft | 0 kts | 277° |